^^
Saratoga-Weather Station Historical Data
Daily Summary for January 28, 2022 Units:  English    Metric   Both
Daily Weekly Monthly Yearly Custom
  High: Low: Average:
Temperature: 40.8 °F 35.8 °F 38.1 °F
Dew Point: 38.5 °F 34.5 °F 36.5 °F
Humidity: 97% 90% 94%
Wind Speed: 11mph 0mph 3.4mph
Wind Gust: 13mph - -
Wind- - West
Pressure: 30.6 in 30.5 in -
Precipitation: 0 in    
Historical Graphs
 
 
Tabular Data for January 28, 2022
Time Temperature Dew Point Pressure Wind Wind Speed Wind Gust Humidity Rainfall Rate (Hourly) solar
00:04 35.8 °F 34.5 °F 30.5 in WNW 6.9 mph 12 mph 95% 0 in 0 W/m2
00:09 36 °F 34.9 °F 30.5 in WNW 4 mph 10 mph 96% 0 in 0 W/m2
00:14 35.8 °F 34.7 °F 30.5 in WNW 4 mph 12 mph 96% 0 in 0 W/m2
00:19 35.8 °F 34.7 °F 30.5 in WNW 4 mph 8 mph 96% 0 in 0 W/m2
00:24 35.8 °F 34.7 °F 30.5 in WNW 6.9 mph 9 mph 96% 0 in 0 W/m2
00:29 35.8 °F 34.5 °F 30.5 in West 4 mph 6 mph 95% 0 in 0 W/m2
00:34 36 °F 34.9 °F 30.5 in NNE 0.9 mph 2 mph 96% 0 in 0 W/m2
00:39 35.8 °F 34.7 °F 30.5 in SSW 2 mph 10 mph 96% 0 in 0 W/m2
00:44 35.8 °F 34.7 °F 30.5 in WNW 4 mph 7 mph 96% 0 in 0 W/m2
00:49 35.8 °F 34.7 °F 30.5 in WSW 6.9 mph 7 mph 96% 0 in 0 W/m2
00:54 35.8 °F 34.7 °F 30.5 in WSW 4.9 mph 10 mph 96% 0 in 0 W/m2
00:59 35.8 °F 34.7 °F 30.5 in WNW 11 mph 11 mph 96% 0 in 0 W/m2
01:04 35.8 °F 34.7 °F 30.5 in WSW 8.1 mph 12 mph 96% 0 in 0 W/m2
01:09 35.8 °F 34.7 °F 30.5 in WSW 4.9 mph 10 mph 96% 0 in 0 W/m2
01:14 35.8 °F 34.7 °F 30.5 in WNW 6.9 mph 11 mph 96% 0 in 0 W/m2
01:19 35.8 °F 34.7 °F 30.5 in West 6.9 mph 11 mph 96% 0 in 0 W/m2
01:24 35.8 °F 34.7 °F 30.5 in WSW 6.9 mph 11 mph 96% 0 in 0 W/m2
01:29 35.8 °F 34.7 °F 30.5 in WSW 8.1 mph 10 mph 96% 0 in 0 W/m2
01:34 35.8 °F 34.7 °F 30.5 in WSW 8.1 mph 10 mph 96% 0 in 0 W/m2
01:39 35.8 °F 34.7 °F 30.5 in WNW 0.9 mph 12 mph 96% 0 in 0 W/m2
01:44 36 °F 34.9 °F 30.5 in West 6.9 mph 10 mph 96% 0 in 0 W/m2
01:49 36 °F 34.9 °F 30.5 in WNW 2 mph 8 mph 96% 0 in 0 W/m2
01:54 36 °F 34.9 °F 30.5 in WSW 4 mph 6 mph 96% 0 in 0 W/m2
01:59 36.1 °F 35.1 °F 30.5 in West 4 mph 8 mph 96% 0 in 0 W/m2
02:04 36.1 °F 35.1 °F 30.5 in West 2 mph 10 mph 96% 0 in 0 W/m2
02:09 36.1 °F 35.1 °F 30.5 in NNW 4.9 mph 10 mph 96% 0 in 0 W/m2
02:14 36.1 °F 35.1 °F 30.5 in SSW 4.9 mph 8 mph 96% 0 in 0 W/m2
02:19 36.3 °F 35.2 °F 30.5 in SW 4.9 mph 10 mph 96% 0 in 0 W/m2
02:24 36.3 °F 35.2 °F 30.5 in West 6 mph 6 mph 96% 0 in 0 W/m2
02:29 36.5 °F 35.4 °F 30.5 in WSW 2.9 mph 7 mph 96% 0 in 0 W/m2
02:34 36.7 °F 35.6 °F 30.5 in WNW 6 mph 11 mph 96% 0 in 0 W/m2
02:39 36.9 °F 35.8 °F 30.5 in West 6 mph 11 mph 96% 0 in 0 W/m2
02:44 36.9 °F 35.8 °F 30.5 in WNW 4 mph 9 mph 96% 0 in 0 W/m2
02:49 36.9 °F 35.8 °F 30.5 in West 2 mph 11 mph 96% 0 in 0 W/m2
02:54 36.9 °F 35.8 °F 30.5 in West 4 mph 11 mph 96% 0 in 0 W/m2
02:59 36.9 °F 35.8 °F 30.5 in West 6 mph 8 mph 96% 0 in 0 W/m2
03:04 36.9 °F 35.8 °F 30.5 in WSW 4.9 mph 12 mph 96% 0 in 0 W/m2
03:09 37 °F 36 °F 30.5 in West 4 mph 10 mph 96% 0 in 0 W/m2
03:14 37 °F 36.3 °F 30.5 in NW 2.9 mph 8 mph 97% 0 in 0 W/m2
03:19 37 °F 36 °F 30.5 in WSW 4.9 mph 9 mph 96% 0 in 0 W/m2
03:24 37 °F 36 °F 30.5 in SW 4 mph 8 mph 96% 0 in 0 W/m2
03:29 37 °F 36 °F 30.5 in WSW 2 mph 8 mph 96% 0 in 0 W/m2
03:34 37 °F 36 °F 30.5 in SW 2.9 mph 10 mph 96% 0 in 0 W/m2
03:39 37.2 °F 36.5 °F 30.5 in NNW 2.9 mph 10 mph 97% 0 in 0 W/m2
03:44 37.2 °F 36.1 °F 30.5 in West 2 mph 6 mph 96% 0 in 0 W/m2
03:49 37.2 °F 36.1 °F 30.5 in WNW 2 mph 10 mph 96% 0 in 0 W/m2
03:54 37.2 °F 36.1 °F 30.5 in West 8.1 mph 10 mph 96% 0 in 0 W/m2
03:59 37.2 °F 36.1 °F 30.5 in West 4 mph 11 mph 96% 0 in 0 W/m2
04:04 37.2 °F 36.1 °F 30.5 in West 2.9 mph 8 mph 96% 0 in 0 W/m2
04:09 37.4 °F 36.3 °F 30.5 in SW 4 mph 11 mph 96% 0 in 0 W/m2
04:14 37.4 °F 36.3 °F 30.5 in West 2.9 mph 6 mph 96% 0 in 0 W/m2
04:19 37.4 °F 36.3 °F 30.5 in SW 2.9 mph 8 mph 96% 0 in 0 W/m2
04:25 37.2 °F 36.1 °F 30.5 in West 4 mph 8 mph 96% 0 in 0 W/m2
04:30 37.4 °F 36.3 °F 30.5 in West 4 mph 11 mph 96% 0 in 0 W/m2
04:35 37.6 °F 36.5 °F 30.5 in WNW 2.9 mph 9 mph 96% 0 in 0 W/m2
04:40 37.6 °F 36.5 °F 30.5 in West 6 mph 9 mph 96% 0 in 0 W/m2
04:45 37.6 °F 36.5 °F 30.5 in West 6.9 mph 8 mph 96% 0 in 0 W/m2
04:50 37.6 °F 36.5 °F 30.5 in WNW 8.1 mph 9 mph 96% 0 in 0 W/m2
04:55 37.6 °F 36.5 °F 30.5 in West 6.9 mph 8 mph 96% 0 in 0 W/m2
05:00 37.6 °F 36.5 °F 30.5 in West 2.9 mph 7 mph 96% 0 in 0 W/m2
05:05 37.6 °F 36.5 °F 30.5 in WSW 2.9 mph 6 mph 96% 0 in 0 W/m2
05:10 37.6 °F 36.5 °F 30.5 in SSW 4.9 mph 6 mph 96% 0 in 0 W/m2
05:15 37.4 °F 36.3 °F 30.5 in West 2 mph 6 mph 96% 0 in 0 W/m2
05:20 37.4 °F 36.3 °F 30.5 in WSW 6.9 mph 9 mph 96% 0 in 0 W/m2
05:30 37.4 °F 36.3 °F 30.5 in West 4 mph 7 mph 96% 0 in 0 W/m2
05:35 37.2 °F 36.1 °F 30.5 in West 6 mph 10 mph 96% 0 in 0 W/m2
05:40 37.4 °F 36.3 °F 30.5 in NW 4.9 mph 10 mph 96% 0 in 0 W/m2
05:45 37.6 °F 36.5 °F 30.5 in WNW 6.9 mph 8 mph 96% 0 in 0 W/m2
05:50 37.6 °F 36.5 °F 30.5 in West 6.9 mph 9 mph 96% 0 in 0 W/m2
05:55 37.6 °F 36.5 °F 30.5 in WSW 2.9 mph 8 mph 96% 0 in 0 W/m2
06:00 37.6 °F 36.5 °F 30.5 in SW 6 mph 7 mph 96% 0 in 0 W/m2
06:05 37.6 °F 36.5 °F 30.5 in West 4 mph 9 mph 96% 0 in 0 W/m2
06:10 37.4 °F 36.3 °F 30.5 in West 2 mph 8 mph 96% 0 in 0 W/m2
06:15 37.6 °F 36.5 °F 30.5 in West 2.9 mph 9 mph 96% 0 in 0 W/m2
06:20 37.4 °F 36.1 °F 30.5 in West 4 mph 8 mph 95% 0 in 0 W/m2
06:25 37.6 °F 36.3 °F 30.5 in West 2.9 mph 11 mph 95% 0 in 0 W/m2
06:30 37.6 °F 36.3 °F 30.5 in WSW 4 mph 10 mph 95% 0 in 0 W/m2
06:35 37.4 °F 36.1 °F 30.5 in WNW 2.9 mph 8 mph 95% 0 in 0 W/m2
06:40 37.2 °F 36 °F 30.5 in West 6.9 mph 10 mph 95% 0 in 0 W/m2
06:45 37.2 °F 36 °F 30.5 in West 6 mph 9 mph 95% 0 in 0 W/m2
06:50 37.2 °F 36 °F 30.5 in West 4 mph 10 mph 95% 0 in 0 W/m2
06:55 37.2 °F 36 °F 30.5 in WNW 4 mph 7 mph 95% 0 in 0 W/m2
07:00 37.2 °F 36 °F 30.5 in NW 4 mph 8 mph 95% 0 in 0 W/m2
07:05 37.2 °F 36 °F 30.5 in West 4 mph 6 mph 95% 0 in 0 W/m2
07:10 37.2 °F 36 °F 30.5 in WSW 4 mph 7 mph 95% 0 in 0 W/m2
07:15 37.2 °F 36 °F 30.5 in West 6 mph 8 mph 95% 0 in 0 W/m2
07:20 37 °F 35.8 °F 30.5 in NW 2.9 mph 9 mph 95% 0 in 0 W/m2
07:25 37 °F 35.8 °F 30.5 in WNW 2.9 mph 7 mph 95% 0 in 0 W/m2
07:30 37 °F 35.8 °F 30.5 in WSW 4.9 mph 9 mph 95% 0 in 0 W/m2
07:35 37 °F 35.8 °F 30.5 in WNW 4 mph 8 mph 95% 0 in 0 W/m2
07:40 36.9 °F 35.6 °F 30.5 in WSW 4 mph 9 mph 95% 0 in 0 W/m2
07:45 36.9 °F 35.6 °F 30.5 in West 4 mph 12 mph 95% 0 in 0 W/m2
07:50 36.9 °F 35.6 °F 30.6 in WSW 4 mph 8 mph 95% 0 in 0 W/m2
07:55 36.9 °F 35.6 °F 30.6 in WNW 8.1 mph 10 mph 95% 0 in 0 W/m2
08:00 36.9 °F 35.6 °F 30.6 in West 2 mph 9 mph 95% 0 in 0 W/m2
08:05 36.9 °F 35.6 °F 30.6 in West 10.1 mph 10 mph 95% 0 in 0 W/m2
08:10 36.7 °F 35.4 °F 30.6 in West 2.9 mph 8 mph 95% 0 in 0 W/m2
08:15 36.7 °F 35.4 °F 30.6 in West 8.1 mph 10 mph 95% 0 in 5 W/m2
08:20 36.7 °F 35.4 °F 30.6 in WNW 4 mph 9 mph 95% 0 in 7 W/m2
08:25 36.7 °F 35.4 °F 30.6 in WNW 2.9 mph 6 mph 95% 0 in 9 W/m2
08:30 36.7 °F 35.4 °F 30.6 in WNW 4 mph 9 mph 95% 0 in 12 W/m2
08:35 36.7 °F 35.4 °F 30.6 in West 2 mph 6 mph 95% 0 in 14 W/m2
08:40 36.5 °F 35.2 °F 30.6 in West 6 mph 9 mph 95% 0 in 19 W/m2
08:46 36.7 °F 35.4 °F 30.6 in West 2 mph 9 mph 95% 0 in 30 W/m2
08:51 36.7 °F 35.4 °F 30.6 in West 11 mph 12 mph 95% 0 in 28 W/m2
08:56 36.7 °F 35.4 °F 30.6 in West 4 mph 7 mph 95% 0 in 44 W/m2
09:01 36.7 °F 35.4 °F 30.6 in West 6 mph 6 mph 95% 0 in 32 W/m2
09:06 36.7 °F 35.4 °F 30.6 in WNW 8.9 mph 9 mph 95% 0 in 42 W/m2
09:11 36.7 °F 35.4 °F 30.6 in West 6 mph 10 mph 95% 0 in 32 W/m2
09:16 36.7 °F 35.4 °F 30.6 in NW 6.9 mph 10 mph 95% 0 in 44 W/m2
09:21 36.7 °F 35.4 °F 30.6 in NW 4.9 mph 10 mph 95% 0 in 23 W/m2
09:26 36.7 °F 35.4 °F 30.6 in WNW 2.9 mph 7 mph 95% 0 in 28 W/m2
09:31 36.7 °F 35.4 °F 30.6 in West 4 mph 12 mph 95% 0 in 32 W/m2
09:36 36.7 °F 35.4 °F 30.6 in WNW 2 mph 6 mph 95% 0 in 37 W/m2
09:41 36.7 °F 35.4 °F 30.6 in West 6.9 mph 11 mph 95% 0 in 69 W/m2
09:46 36.7 °F 35.4 °F 30.6 in West 2.9 mph 8 mph 95% 0 in 128 W/m2
09:51 36.9 °F 35.6 °F 30.6 in WNW 2.9 mph 11 mph 95% 0 in 151 W/m2
09:56 37.2 °F 36 °F 30.6 in SW 4 mph 11 mph 95% 0 in 178 W/m2
10:01 37.4 °F 36.1 °F 30.6 in WSW 4.9 mph 7 mph 95% 0 in 118 W/m2
10:06 37.8 °F 36.5 °F 30.6 in West 6 mph 11 mph 95% 0 in 111 W/m2
10:11 37.8 °F 36.5 °F 30.6 in NW 4 mph 8 mph 95% 0 in 148 W/m2
10:16 37.9 °F 36.7 °F 30.6 in WNW 4.9 mph 11 mph 95% 0 in 158 W/m2
10:21 38.3 °F 37 °F 30.6 in WSW 8.1 mph 12 mph 95% 0 in 128 W/m2
10:26 38.7 °F 37 °F 30.6 in West 6 mph 12 mph 94% 0 in 186 W/m2
10:31 38.7 °F 37 °F 30.6 in NW 8.1 mph 9 mph 94% 0 in 121 W/m2
10:36 38.8 °F 37.2 °F 30.6 in WNW 2.9 mph 12 mph 94% 0 in 116 W/m2
10:41 38.8 °F 37 °F 30.6 in West 8.9 mph 10 mph 93% 0 in 63 W/m2
10:46 38.8 °F 37 °F 30.6 in West 6 mph 8 mph 93% 0 in 86 W/m2
10:51 38.8 °F 37 °F 30.6 in SW 6 mph 10 mph 93% 0 in 88 W/m2
10:56 38.8 °F 37 °F 30.6 in WSW 6.9 mph 11 mph 93% 0 in 90 W/m2
11:01 38.8 °F 36.7 °F 30.6 in WNW 6 mph 8 mph 92% 0 in 90 W/m2
11:06 38.8 °F 36.7 °F 30.6 in West 8.1 mph 11 mph 92% 0 in 84 W/m2
11:11 38.8 °F 36.7 °F 30.6 in WNW 8.1 mph 9 mph 92% 0 in 139 W/m2
11:16 39 °F 36.9 °F 30.6 in West 8.1 mph 12 mph 92% 0 in 209 W/m2
11:21 39.6 °F 37.4 °F 30.6 in WNW 6.9 mph 8 mph 92% 0 in 250 W/m2
11:26 39.6 °F 37.4 °F 30.6 in WNW 4 mph 12 mph 92% 0 in 151 W/m2
11:31 39.7 °F 37.6 °F 30.6 in West 8.9 mph 12 mph 92% 0 in 185 W/m2
11:36 39.7 °F 37.6 °F 30.6 in WSW 4 mph 9 mph 92% 0 in 190 W/m2
11:41 39.7 °F 37.6 °F 30.6 in West 6 mph 12 mph 92% 0 in 149 W/m2
11:46 39.6 °F 37.4 °F 30.6 in West 6 mph 9 mph 92% 0 in 220 W/m2
11:51 39.7 °F 37.6 °F 30.6 in SW 6 mph 11 mph 92% 0 in 172 W/m2
11:56 39.7 °F 37.4 °F 30.6 in WNW 4.9 mph 13 mph 91% 0 in 174 W/m2
12:01 39.6 °F 37.2 °F 30.6 in West 6 mph 8 mph 91% 0 in 120 W/m2
12:06 39.4 °F 37.2 °F 30.6 in WNW 8.9 mph 13 mph 92% 0 in 144 W/m2
12:11 39 °F 36.9 °F 30.6 in WSW 4 mph 7 mph 92% 0 in 109 W/m2
12:16 38.8 °F 36.7 °F 30.6 in WNW 9 mph 9 mph 92% 0 in 98 W/m2
12:21 38.8 °F 36.7 °F 30.6 in WSW 2.9 mph 3 mph 92% 0 in 88 W/m2
12:26 38.8 °F 36.7 °F 30.6 in WNW 2.9 mph 6 mph 92% 0 in 88 W/m2
12:31 38.8 °F 36.7 °F 30.6 in NW 2 mph 4 mph 92% 0 in 120 W/m2
12:36 38.8 °F 36.7 °F 30.6 in West 0.9 mph 7 mph 92% 0 in 102 W/m2
12:41 38.7 °F 36.5 °F 30.6 in West 2 mph 8 mph 92% 0 in 116 W/m2
12:46 38.7 °F 36.9 °F 30.6 in WSW 0.9 mph 3 mph 93% 0 in 104 W/m2
12:51 38.7 °F 36.9 °F 30.6 in NW 2 mph 4 mph 93% 0 in 190 W/m2
12:56 38.7 °F 36.9 °F 30.6 in West 6 mph 6 mph 93% 0 in 139 W/m2
13:01 38.8 °F 37 °F 30.6 in WNW 8.1 mph 8 mph 93% 0 in 153 W/m2
13:06 39 °F 37.2 °F 30.6 in NW 2.9 mph 4 mph 93% 0 in 130 W/m2
13:11 39.2 °F 37.4 °F 30.6 in WNW 7 mph 7 mph 93% 0 in 142 W/m2
13:16 39.2 °F 37.4 °F 30.6 in WSW 0.9 mph 5 mph 93% 0 in 167 W/m2
13:21 39.4 °F 37.6 °F 30.6 in WNW 2 mph 4 mph 93% 0 in 90 W/m2
13:26 39.4 °F 37.6 °F 30.6 in NW 0.9 mph 4 mph 93% 0 in 121 W/m2
13:31 39.4 °F 37.6 °F 30.6 in SW 2.9 mph 4 mph 93% 0 in 165 W/m2
13:36 39.4 °F 37.2 °F 30.6 in WNW 2 mph 6 mph 92% 0 in 132 W/m2
13:41 39.6 °F 37.8 °F 30.6 in WNW 2 mph 3 mph 93% 0 in 144 W/m2
13:46 39.6 °F 37.4 °F 30.6 in WNW 2.9 mph 4 mph 92% 0 in 181 W/m2
13:51 39.6 °F 37.8 °F 30.6 in Calm   4 mph 93% 0 in 163 W/m2
13:56 39.7 °F 37.9 °F 30.6 in West 2.9 mph 8 mph 93% 0 in 116 W/m2
14:01 39.7 °F 37.6 °F 30.6 in WSW 2.9 mph 4 mph 92% 0 in 163 W/m2
14:06 39.9 °F 37.8 °F 30.6 in West 0.9 mph 8 mph 92% 0 in 134 W/m2
14:11 39.9 °F 37.8 °F 30.6 in West 0.9 mph 3 mph 92% 0 in 111 W/m2
14:16 40.3 °F 38.1 °F 30.6 in NW 2 mph 4 mph 92% 0 in 74 W/m2
14:21 40.3 °F 38.1 °F 30.6 in NW 4.9 mph 5 mph 92% 0 in 81 W/m2
14:26 40.3 °F 38.1 °F 30.6 in WSW 2.9 mph 8 mph 92% 0 in 76 W/m2
14:31 40.3 °F 38.1 °F 30.6 in West 4 mph 7 mph 92% 0 in 65 W/m2
14:36 40.3 °F 38.1 °F 30.6 in WNW 2 mph 4 mph 92% 0 in 49 W/m2
14:41 40.3 °F 38.1 °F 30.6 in WNW 6.9 mph 7 mph 92% 0 in 77 W/m2
14:46 40.3 °F 38.1 °F 30.6 in Calm   5 mph 92% 0 in 90 W/m2
14:51 40.3 °F 38.1 °F 30.6 in West 2 mph 3 mph 92% 0 in 70 W/m2
14:56 40.3 °F 38.1 °F 30.6 in West 2 mph 7 mph 92% 0 in 69 W/m2
15:01 40.3 °F 38.1 °F 30.6 in SW 6.9 mph 7 mph 92% 0 in 90 W/m2
15:06 40.3 °F 38.1 °F 30.6 in WNW 0.9 mph 4 mph 92% 0 in 69 W/m2
15:11 40.5 °F 38.3 °F 30.6 in Calm   3 mph 92% 0 in 98 W/m2
15:16 40.6 °F 38.5 °F 30.6 in West 4 mph 6 mph 92% 0 in 65 W/m2
15:21 40.6 °F 38.3 °F 30.6 in West 2 mph 4 mph 91% 0 in 58 W/m2
15:26 40.6 °F 38.3 °F 30.6 in Calm   4 mph 91% 0 in 37 W/m2
15:32 40.8 °F 38.5 °F 30.6 in West 2 mph 4 mph 91% 0 in 40 W/m2
15:37 40.8 °F 38.5 °F 30.6 in WSW 0.9 mph 3 mph 91% 0 in 42 W/m2
15:42 40.8 °F 38.5 °F 30.6 in West 0.9 mph 3 mph 91% 0 in 47 W/m2
15:47 40.8 °F 38.5 °F 30.6 in Calm   4 mph 91% 0 in 33 W/m2
15:52 40.8 °F 38.1 °F 30.6 in WNW 2.9 mph 6 mph 90% 0 in 30 W/m2
15:57 40.8 °F 38.1 °F 30.6 in WNW 4 mph 4 mph 90% 0 in 32 W/m2
16:02 40.8 °F 38.1 °F 30.6 in West 2.9 mph 7 mph 90% 0 in 23 W/m2
16:07 40.8 °F 38.1 °F 30.6 in WNW 6 mph 6 mph 90% 0 in 32 W/m2
16:12 40.8 °F 38.1 °F 30.6 in West 2 mph 2 mph 90% 0 in 32 W/m2
16:17 40.8 °F 38.1 °F 30.6 in WSW 5 mph 5 mph 90% 0 in 16 W/m2
16:22 40.8 °F 38.1 °F 30.6 in West 2.9 mph 3 mph 90% 0 in 9 W/m2
16:27 40.8 °F 38.1 °F 30.6 in NW 2 mph 3 mph 90% 0 in 14 W/m2
16:32 40.6 °F 37.9 °F 30.6 in NW 2 mph 2 mph 90% 0 in 12 W/m2
16:37 40.6 °F 37.9 °F 30.6 in WNW 2.9 mph 3 mph 90% 0 in 12 W/m2
16:42 40.6 °F 37.9 °F 30.6 in Calm   1 mph 90% 0 in 12 W/m2
16:47 40.5 °F 37.8 °F 30.6 in WSW 2 mph 6 mph 90% 0 in 9 W/m2
16:52 40.5 °F 37.8 °F 30.6 in WNW 4 mph 5 mph 90% 0 in 5 W/m2
16:57 40.5 °F 37.8 °F 30.6 in West 4 mph 7 mph 90% 0 in 5 W/m2
17:02 40.5 °F 37.8 °F 30.6 in WNW 0.9 mph 2 mph 90% 0 in 0 W/m2
17:07 40.5 °F 37.8 °F 30.6 in WNW 0.9 mph 4 mph 90% 0 in 0 W/m2
17:12 40.5 °F 37.8 °F 30.6 in Calm   3 mph 90% 0 in 0 W/m2
17:17 40.3 °F 37.9 °F 30.6 in WNW 0.9 mph 4 mph 91% 0 in 0 W/m2
17:22 40.3 °F 37.9 °F 30.6 in Calm   1 mph 91% 0 in 0 W/m2
17:27 40.3 °F 37.9 °F 30.6 in WNW 2 mph 3 mph 91% 0 in 0 W/m2
17:32 40.1 °F 37.8 °F 30.6 in Calm   3 mph 91% 0 in 0 W/m2
17:37 40.1 °F 37.8 °F 30.6 in SW 2.9 mph 5 mph 91% 0 in 0 W/m2
17:42 39.9 °F 37.6 °F 30.6 in West 2.9 mph 6 mph 91% 0 in 0 W/m2
17:47 39.9 °F 37.6 °F 30.6 in West 2.9 mph 4 mph 91% 0 in 0 W/m2
17:52 39.9 °F 37.6 °F 30.6 in Calm   2 mph 91% 0 in 0 W/m2
17:57 39.9 °F 37.6 °F 30.6 in West 2 mph 4 mph 91% 0 in 0 W/m2
18:02 39.9 °F 37.6 °F 30.6 in Calm   2 mph 91% 0 in 0 W/m2
18:07 39.9 °F 37.6 °F 30.6 in WNW 0.9 mph 4 mph 91% 0 in 0 W/m2
18:12 39.7 °F 37.6 °F 30.6 in NNW 0.9 mph 3 mph 92% 0 in 0 W/m2
18:17 39.7 °F 37.4 °F 30.6 in WNW 0.9 mph 4 mph 91% 0 in 0 W/m2
18:22 39.7 °F 37.6 °F 30.6 in WNW 0.9 mph 1 mph 92% 0 in 0 W/m2
18:27 39.7 °F 37.4 °F 30.6 in Calm     91% 0 in 0 W/m2
18:32 39.7 °F 37.4 °F 30.6 in West 2 mph 4 mph 91% 0 in 0 W/m2
18:37 39.7 °F 37.4 °F 30.6 in Calm     91% 0 in 0 W/m2
18:42 39.7 °F 37.6 °F 30.6 in WSW 0.9 mph 4 mph 92% 0 in 0 W/m2
18:47 39.7 °F 37.6 °F 30.6 in West 0.9 mph 3 mph 92% 0 in 0 W/m2
18:52 39.7 °F 37.6 °F 30.6 in West 2.9 mph 4 mph 92% 0 in 0 W/m2
18:57 39.6 °F 37.4 °F 30.6 in West 0.9 mph 2 mph 92% 0 in 0 W/m2
19:02 39.6 °F 37.4 °F 30.6 in WNW 2.9 mph 3 mph 92% 0 in 0 W/m2
19:07 39.4 °F 37.2 °F 30.6 in South 0.9 mph 2 mph 92% 0 in 0 W/m2
19:12 39.4 °F 37.6 °F 30.6 in Calm   2 mph 93% 0 in 0 W/m2
19:17 39.4 °F 37.6 °F 30.6 in WNW 0.9 mph 1 mph 93% 0 in 0 W/m2
19:22 39.2 °F 37.4 °F 30.6 in Calm     93% 0 in 0 W/m2
19:27 39 °F 37.2 °F 30.6 in SE 2 mph 2 mph 93% 0 in 0 W/m2
19:32 39 °F 37.2 °F 30.6 in Calm   1 mph 93% 0 in 0 W/m2
19:37 39 °F 37.2 °F 30.6 in West 2.9 mph 4 mph 93% 0 in 0 W/m2
19:42 38.8 °F 37.2 °F 30.6 in WNW 2 mph 3 mph 94% 0 in 0 W/m2
19:47 38.8 °F 37 °F 30.6 in West 2.9 mph 6 mph 93% 0 in 0 W/m2
19:52 38.8 °F 37.2 °F 30.6 in Calm   2 mph 94% 0 in 0 W/m2
19:57 38.7 °F 37 °F 30.6 in Calm   1 mph 94% 0 in 0 W/m2
20:02 38.7 °F 37 °F 30.6 in NW 0.9 mph 2 mph 94% 0 in 0 W/m2
20:07 38.7 °F 37 °F 30.6 in NW 0.9 mph 3 mph 94% 0 in 0 W/m2
20:12 38.5 °F 36.9 °F 30.6 in Calm   3 mph 94% 0 in 0 W/m2
20:17 38.5 °F 36.9 °F 30.6 in West 0.9 mph 2 mph 94% 0 in 0 W/m2
20:22 38.5 °F 36.9 °F 30.6 in West 0.9 mph 3 mph 94% 0 in 0 W/m2
20:27 38.3 °F 36.7 °F 30.6 in NNW 2 mph 4 mph 94% 0 in 0 W/m2
20:32 38.3 °F 36.7 °F 30.6 in West 2 mph 3 mph 94% 0 in 0 W/m2
20:37 38.1 °F 36.5 °F 30.6 in NW 4 mph 6 mph 94% 0 in 0 W/m2
20:42 38.1 °F 36.5 °F 30.6 in West 2 mph 4 mph 94% 0 in 0 W/m2
20:47 38.1 °F 36.9 °F 30.6 in WSW 0.9 mph 6 mph 95% 0 in 0 W/m2
20:52 37.9 °F 36.7 °F 30.6 in NW 0.9 mph 2 mph 95% 0 in 0 W/m2
20:57 37.9 °F 36.7 °F 30.6 in WNW 2 mph 6 mph 95% 0 in 0 W/m2
21:02 37.9 °F 36.7 °F 30.6 in Calm   3 mph 95% 0 in 0 W/m2
21:07 37.9 °F 36.7 °F 30.6 in NW 0.9 mph 2 mph 95% 0 in 0 W/m2
21:12 37.9 °F 36.7 °F 30.6 in Calm     95% 0 in 0 W/m2
21:17 37.9 °F 36.7 °F 30.6 in South 0.9 mph 3 mph 95% 0 in 0 W/m2
21:22 37.8 °F 36.5 °F 30.6 in WNW 2 mph 2 mph 95% 0 in 0 W/m2
21:27 37.8 °F 36.5 °F 30.6 in WNW 2.9 mph 4 mph 95% 0 in 0 W/m2
21:32 37.8 °F 36.5 °F 30.6 in West 0.9 mph 3 mph 95% 0 in 0 W/m2
21:37 37.8 °F 36.5 °F 30.6 in West 2 mph 2 mph 95% 0 in 0 W/m2
21:42 37.8 °F 36.5 °F 30.6 in NW 2 mph 3 mph 95% 0 in 0 W/m2
21:47 37.8 °F 36.5 °F 30.6 in Calm   1 mph 95% 0 in 0 W/m2
21:52 37.8 °F 36.5 °F 30.6 in Calm   4 mph 95% 0 in 0 W/m2
21:57 37.6 °F 36.3 °F 30.6 in Calm   4 mph 95% 0 in 0 W/m2
22:02 37.6 °F 36.3 °F 30.6 in NW 2 mph 3 mph 95% 0 in 0 W/m2
22:07 37.6 °F 36.3 °F 30.6 in Calm   3 mph 95% 0 in 0 W/m2
22:12 37.6 °F 36.3 °F 30.6 in Calm   1 mph 95% 0 in 0 W/m2
22:17 37.6 °F 36.3 °F 30.6 in WNW 2.9 mph 3 mph 95% 0 in 0 W/m2
22:22 37.6 °F 36.3 °F 30.6 in NW 0.9 mph 2 mph 95% 0 in 0 W/m2
22:27 37.4 °F 36.1 °F 30.6 in Calm   2 mph 95% 0 in 0 W/m2
22:32 37.4 °F 36.1 °F 30.6 in WNW 2 mph 4 mph 95% 0 in 0 W/m2
22:37 37.2 °F 36 °F 30.6 in West 0.9 mph 2 mph 95% 0 in 0 W/m2
22:42 37.2 °F 36 °F 30.6 in Calm   3 mph 95% 0 in 0 W/m2
22:47 37.2 °F 36 °F 30.6 in WSW 0.9 mph 1 mph 95% 0 in 0 W/m2
22:52 37.2 °F 36 °F 30.6 in WSW 2 mph 8 mph 95% 0 in 0 W/m2
22:57 37 °F 35.8 °F 30.6 in West 2 mph 3 mph 95% 0 in 0 W/m2
23:02 37 °F 35.8 °F 30.6 in Calm   8 mph 95% 0 in 0 W/m2
23:07 37 °F 35.8 °F 30.6 in Calm   3 mph 95% 0 in 0 W/m2
23:12 37 °F 35.8 °F 30.6 in WNW 2 mph 2 mph 95% 0 in 0 W/m2
23:17 37 °F 35.8 °F 30.6 in WSW 2 mph 3 mph 95% 0 in 0 W/m2
23:22 36.9 °F 35.6 °F 30.6 in WSW 2 mph 4 mph 95% 0 in 0 W/m2
23:27 36.9 °F 35.6 °F 30.6 in WNW 2 mph 6 mph 95% 0 in 0 W/m2
23:32 36.9 °F 35.6 °F 30.6 in NW 0.9 mph 2 mph 95% 0 in 0 W/m2
23:37 36.9 °F 35.6 °F 30.6 in WSW 2 mph 5 mph 95% 0 in 0 W/m2
23:42 36.9 °F 35.6 °F 30.6 in SW 2 mph 5 mph 95% 0 in 0 W/m2
23:47 36.9 °F 35.6 °F 30.6 in NNW 2.9 mph 3 mph 95% 0 in 0 W/m2
23:52 36.9 °F 35.6 °F 30.5 in NW 2 mph 4 mph 95% 0 in 0 W/m2
23:57 36.9 °F 35.6 °F 30.5 in SSW 2 mph 4 mph 95% 0 in 0 W/m2
Juneau County Weather
Compliments of Weather Underground - 4 mb